createdAt,value
2024-05-09T00:00:06.435Z,17.93
2024-05-09T00:05:14.026Z,7.93
2024-05-09T00:10:25.520Z,6.10
2024-05-09T00:15:37.972Z,6.20
2024-05-09T00:20:44.983Z,7.10
2024-05-09T00:25:49.335Z,6.50
2024-05-09T00:30:53.750Z,6.80
2024-05-09T00:36:00.704Z,6.90
2024-05-09T00:41:05.066Z,7.00
2024-05-09T00:46:11.124Z,7.03
2024-05-09T00:51:18.409Z,7.17
2024-05-09T00:56:24.618Z,6.30
2024-05-09T01:01:29.410Z,6.93
2024-05-09T01:06:36.464Z,5.90
2024-05-09T01:11:42.822Z,6.80
2024-05-09T01:16:47.500Z,6.80
2024-05-09T01:21:54.695Z,6.50
2024-05-09T01:27:01.862Z,6.60
2024-05-09T01:32:06.675Z,6.63
2024-05-09T01:37:11.262Z,6.27
2024-05-09T01:42:18.614Z,6.43
2024-05-09T01:47:23.183Z,6.10
2024-05-09T01:52:27.735Z,6.57
2024-05-09T01:57:34.891Z,6.17
2024-05-09T02:02:39.849Z,5.47
2024-05-09T02:07:44.306Z,5.93
2024-05-09T02:12:51.402Z,6.20
2024-05-09T02:17:56.101Z,6.33
2024-05-09T02:23:01.590Z,6.83
2024-05-09T02:28:08.786Z,6.30
2024-05-09T02:33:14.464Z,7.07
2024-05-09T02:38:19.318Z,7.10
2024-05-09T02:43:26.427Z,7.00
2024-05-09T02:48:31.027Z,5.97
2024-05-09T02:53:35.670Z,6.73
2024-05-09T02:58:43.041Z,6.97
2024-05-09T03:03:50.420Z,6.20
2024-05-09T03:08:54.928Z,6.63
2024-05-09T03:14:02.056Z,5.60
2024-05-09T03:19:06.715Z,5.50
2024-05-09T03:24:11.251Z,5.07
2024-05-09T03:29:20.109Z,4.30
2024-05-09T03:34:24.475Z,5.10
2024-05-09T03:39:28.878Z,4.60
2024-05-09T03:44:35.851Z,4.43
2024-05-09T03:49:40.762Z,4.17
2024-05-09T03:54:48.318Z,4.37
2024-05-09T03:59:55.259Z,4.40
2024-05-09T04:04:59.623Z,4.23
2024-05-09T04:10:05.298Z,4.20
2024-05-09T04:15:13.690Z,4.47
2024-05-09T04:20:28.774Z,4.10
2024-05-09T04:25:40.972Z,4.20
2024-05-09T04:30:47.968Z,4.23
2024-05-09T04:35:52.371Z,3.93
2024-05-09T04:40:56.767Z,3.83
2024-05-09T04:46:03.800Z,3.53
2024-05-09T04:51:09.833Z,3.73
2024-05-09T04:56:14.345Z,3.37
2024-05-09T05:01:21.484Z,3.00
2024-05-09T05:06:25.820Z,4.60
2024-05-09T05:11:30.307Z,4.40
2024-05-09T05:16:37.324Z,4.30
2024-05-09T05:21:41.656Z,4.07
2024-05-09T05:26:46.145Z,3.87
2024-05-09T05:31:53.331Z,4.03
2024-05-09T05:36:57.815Z,4.43
2024-05-09T05:42:02.164Z,4.23
2024-05-09T05:47:09.280Z,4.13
2024-05-09T05:52:13.741Z,4.30
2024-05-09T05:57:18.132Z,3.73
2024-05-09T06:02:25.176Z,3.57
2024-05-09T06:07:29.619Z,3.57
2024-05-09T06:12:33.917Z,3.67
2024-05-09T06:17:40.961Z,3.83
2024-05-09T06:22:45.405Z,3.63
2024-05-09T06:27:49.725Z,3.83
2024-05-09T06:32:56.799Z,3.60
2024-05-09T06:38:01.751Z,4.03
2024-05-09T06:43:06.540Z,3.60
2024-05-09T06:48:14.088Z,4.20
2024-05-09T06:53:19.611Z,4.43
2024-05-09T06:58:23.984Z,4.33
2024-05-09T07:03:31.740Z,3.90
2024-05-09T07:08:36.291Z,4.13
2024-05-09T07:13:40.714Z,4.30
2024-05-09T07:18:49.818Z,4.17
2024-05-09T07:23:54.451Z,4.00
2024-05-09T07:28:58.912Z,4.00
2024-05-09T07:34:06.110Z,3.63
2024-05-09T07:39:10.519Z,3.80
2024-05-09T07:44:14.914Z,4.22
2024-05-09T07:54:29.354Z,3.97
2024-05-09T07:59:37.631Z,4.35
2024-05-09T08:04:44.908Z,4.28
2024-05-09T08:09:49.474Z,3.92
2024-05-09T08:14:55.336Z,3.13
2024-05-09T08:20:04.385Z,3.10
2024-05-09T08:25:11.897Z,3.15
2024-05-09T08:30:24.764Z,3.83
2024-05-09T08:35:36.826Z,3.60
2024-05-09T08:40:41.420Z,2.63
2024-05-09T08:45:46.980Z,2.67
2024-05-09T08:50:59.157Z,7.03
2024-05-09T08:56:04.731Z,3.70
2024-05-09T09:01:10.247Z,4.80
2024-05-09T09:06:20.525Z,2.40
2024-05-09T09:11:24.868Z,2.40
2024-05-09T09:16:36.415Z,2.85
2024-05-09T09:21:43.482Z,2.10
2024-05-09T09:26:47.957Z,2.22
2024-05-09T09:32:00.636Z,2.30
2024-05-09T09:37:10.183Z,2.05
2024-05-09T09:42:19.127Z,2.55
2024-05-09T09:47:24.404Z,2.10
2024-05-09T09:52:31.669Z,2.10
2024-05-09T09:57:38.097Z,2.03
2024-05-09T10:02:42.812Z,4.32
2024-05-09T10:07:50.270Z,1.92
2024-05-09T10:12:59.684Z,2.10
2024-05-09T10:18:08.337Z,2.05
2024-05-09T10:23:29.187Z,2.38
2024-05-09T10:28:34.987Z,1.45
2024-05-09T10:33:41.664Z,4.35
2024-05-09T10:38:48.877Z,2.08
2024-05-09T10:43:53.921Z,2.28
2024-05-09T10:49:04.196Z,1.80
2024-05-09T10:54:13.494Z,1.85
2024-05-09T10:59:17.840Z,2.25
2024-05-09T11:04:22.502Z,1.50
2024-05-09T11:09:29.841Z,2.30
2024-05-09T11:14:34.355Z,2.00
2024-05-09T11:19:41.545Z,1.85
2024-05-09T11:24:48.650Z,6.15
2024-05-09T11:29:53.115Z,1.80
2024-05-09T11:34:57.426Z,1.20
2024-05-09T11:40:07.100Z,1.33
2024-05-09T11:45:15.923Z,1.80
2024-05-09T11:50:27.150Z,1.85
2024-05-09T11:55:39.414Z,1.65
2024-05-09T12:00:43.936Z,2.05
2024-05-09T12:05:48.687Z,1.80
2024-05-09T12:10:56.236Z,1.73
2024-05-09T12:16:01.266Z,2.05
2024-05-09T12:21:05.824Z,1.38
2024-05-09T12:26:14.011Z,1.30
2024-05-09T12:31:18.366Z,1.55
2024-05-09T12:36:22.779Z,1.30
2024-05-09T12:41:29.829Z,1.73
2024-05-09T12:46:34.535Z,1.63
2024-05-09T12:51:39.093Z,1.80
2024-05-09T12:56:46.146Z,1.60
2024-05-09T13:01:51.054Z,1.45
2024-05-09T13:06:55.535Z,1.65
2024-05-09T13:12:03.008Z,1.55
2024-05-09T13:17:07.837Z,1.40
2024-05-09T13:22:12.342Z,1.40
2024-05-09T13:27:19.412Z,1.25
2024-05-09T13:32:23.910Z,1.60
2024-05-09T13:37:28.612Z,1.25
2024-05-09T13:42:35.621Z,1.55
2024-05-09T13:47:40.276Z,1.38
2024-05-09T13:52:44.696Z,1.80
2024-05-09T13:57:52.095Z,1.70
2024-05-09T14:02:56.718Z,1.50
2024-05-09T14:08:01.245Z,1.33
2024-05-09T14:13:08.316Z,1.60
2024-05-09T14:18:14.178Z,1.50
2024-05-09T14:23:20.520Z,1.50
2024-05-09T14:28:27.992Z,1.38
2024-05-09T14:33:32.629Z,1.50
2024-05-09T14:38:37.087Z,1.50
2024-05-09T14:43:44.015Z,1.45
2024-05-09T14:48:48.728Z,2.08
2024-05-09T14:53:53.218Z,1.50
2024-05-09T14:59:01.183Z,1.48
2024-05-09T15:04:05.709Z,1.50
2024-05-09T15:09:10.222Z,2.05
2024-05-09T15:14:17.179Z,6.75
2024-05-09T15:19:21.910Z,1.20
2024-05-09T15:24:26.364Z,11.23
2024-05-09T15:29:33.373Z,1.38
2024-05-09T15:34:37.797Z,1.10
2024-05-09T15:39:42.777Z,3.47
2024-05-09T15:44:52.956Z,2.20
2024-05-09T15:49:57.499Z,1.50
2024-05-09T15:55:01.953Z,1.02
2024-05-09T16:00:21.443Z,1.30
2024-05-09T16:05:29.689Z,1.00
2024-05-09T16:10:35.138Z,1.25
2024-05-09T16:15:42.717Z,1.08
2024-05-09T16:20:49.500Z,1.20
2024-05-09T16:25:54.757Z,0.90
2024-05-09T16:31:02.534Z,1.10
2024-05-09T16:36:07.598Z,1.23
2024-05-09T16:41:13.306Z,1.10
2024-05-09T16:46:22.330Z,1.20
2024-05-09T16:51:26.717Z,1.58
2024-05-09T16:56:31.092Z,1.30
2024-05-09T17:01:38.086Z,0.98
2024-05-09T17:06:42.603Z,1.13
2024-05-09T17:11:47.074Z,1.00
2024-05-09T17:16:54.290Z,1.20
2024-05-09T17:21:58.789Z,1.20
2024-05-09T17:27:03.443Z,1.60
2024-05-09T17:32:10.715Z,1.73
2024-05-09T17:37:15.145Z,1.35
2024-05-09T17:42:19.561Z,1.30
2024-05-09T17:47:26.655Z,1.15
2024-05-09T17:52:31.203Z,1.52
2024-05-09T17:57:35.979Z,1.10
2024-05-09T18:02:43.008Z,1.13
2024-05-09T18:07:47.467Z,1.60
2024-05-09T18:12:51.835Z,1.60
2024-05-09T18:17:59.393Z,1.30
2024-05-09T18:23:03.865Z,1.30
2024-05-09T18:28:09.475Z,3.72
2024-05-09T18:33:17.061Z,1.35
2024-05-09T18:44:44.139Z,1.60
2024-05-09T18:49:51.452Z,3.90
2024-05-09T18:54:55.865Z,1.88
2024-05-09T19:00:00.441Z,1.42
2024-05-09T19:05:07.955Z,1.60
2024-05-09T19:10:22.213Z,1.70
2024-05-09T19:15:30.231Z,2.40
2024-05-09T19:20:38.064Z,12.70
2024-05-09T19:25:43.325Z,2.30
2024-05-09T19:30:48.220Z,2.00
2024-05-09T19:35:55.504Z,2.50
2024-05-09T19:41:00.369Z,2.10
2024-05-09T19:46:05.475Z,3.35
2024-05-09T19:51:13.023Z,8.20
2024-05-09T19:56:18.024Z,2.65
2024-05-09T20:01:22.957Z,2.30
2024-05-09T20:06:30.702Z,2.00
2024-05-09T20:11:41.741Z,2.08
2024-05-09T20:16:47.106Z,2.33
2024-05-09T20:21:54.703Z,2.30
2024-05-09T20:26:59.125Z,2.03
2024-05-09T20:32:04.548Z,2.00
2024-05-09T20:37:12.286Z,2.40
2024-05-09T20:42:17.290Z,2.10
2024-05-09T20:47:22.296Z,2.20
2024-05-09T20:52:32.243Z,5.05
2024-05-09T20:57:37.093Z,4.35
2024-05-09T21:02:43.696Z,3.03
2024-05-09T21:07:51.319Z,2.67
2024-05-09T21:12:56.526Z,2.87
2024-05-09T21:18:02.184Z,6.72
2024-05-09T21:23:11.083Z,5.80
2024-05-09T21:28:15.574Z,4.97
2024-05-09T21:33:22.581Z,11.30
2024-05-09T21:38:29.617Z,7.63
2024-05-09T21:43:34.618Z,19.15
2024-05-09T21:48:39.559Z,5.00
2024-05-09T21:53:47.153Z,11.20
2024-05-09T21:58:51.617Z,4.93
2024-05-09T22:03:56.510Z,5.50
2024-05-09T22:09:05.751Z,5.30
2024-05-09T22:14:10.302Z,4.53
2024-05-09T22:19:15.119Z,3.90
2024-05-09T22:24:22.484Z,3.10
2024-05-09T22:29:26.849Z,3.53
2024-05-09T22:34:32.729Z,2.80
2024-05-09T22:39:39.988Z,2.73
2024-05-09T22:44:45.035Z,3.40
2024-05-09T22:49:49.740Z,3.20
2024-05-09T22:54:57.841Z,3.30
2024-05-09T23:00:02.575Z,2.70
2024-05-09T23:05:08.726Z,2.20
2024-05-09T23:10:21.467Z,2.10
2024-05-09T23:15:32.630Z,2.70
2024-05-09T23:20:39.465Z,2.50
2024-05-09T23:25:47.439Z,2.80
2024-05-09T23:30:52.500Z,2.90
2024-05-09T23:35:56.875Z,3.00
2024-05-09T23:41:03.961Z,3.00
2024-05-09T23:46:08.945Z,2.50
2024-05-09T23:51:13.378Z,2.93
2024-05-09T23:56:24.448Z,2.60
